Tonopah Airport
KTPH : now visible

Airfield :











YOU CAN JOIN US ON...

 
LOGIN :

Register | Disclaimer

   EN    FR    IT 

 









Legend :    VFR   Marginal VFR   IFR   Intensive IFR   Very Intensive IFR
Visi :
Ceiling :
>= 8 km
>= 3000ft
5 to 8 km
1000 to 3000 ft
1500m to 5 km
500 to 1000 ft
800 to 1500m
200 to 500 ft
< 800m
< 200 ft
Symbols :   Thunderstorms  Fog  Heavy snow  Heavy precipitations  Wind > 20 kt






- Airport Elevation : 5430 ft


KTPH - Tonopah

CURRENT METAR :
  • 091956Z AUTO 02010KT 10SM CLR 07/M03 A3015 RMK AO2 SLP207 T00671033 $

EXPIRED METARs :
  • 091856Z AUTO 02010KT 10SM CLR 06/M03 A3016 RMK AO2 SLP210 T00611033 $
  • 091756Z AUTO 03010KT 10SM CLR 05/M02 A3016 RMK AO2 SLP212 T00501022 10050 21022 50011 $

TAF KTPH
Valid from the 09 at 18:00 until the 10 at 18:00 UTC


091727Z 0918/1018 01009KT P6SM FEW150 BKN200
FM100000 35010KT P6SM SKC
FM100900 VRB03KT P6SM FEW250



MET'MAP, your aeronautical weather chart ! - Copyright ORBIFLY December 2007 - Disclaimer

ORBIFLY MET'MAP TEAM :

Programming & Development : Alexandra Zaïnal
Concept & original design : Baudouin d'Aumeries
Assistance for programming : Marc-Olivier Méhu
Technical & hardware support : Manuel Goepfert

Contact : metmap@orbifly.com




SOURCES & CREDITS :

   NOAA       Earth
Advisory